Latest Weather Observations for Bulman

IDD60801

Issued at 1:31 pm CST Thursday 28 May 2015 (issued every 30 minutes, with the page automatically refreshed every 10 minutes)

About weather observations | Map of weather stations | Latest weather observations for NT | Other Formats
Station Details ID: 014627 Name: BULMAN Lat: -13.67 Lon: 134.34 Height: 103.4 m
Data from the previous 72 hours. | See also: Recent months for locations in Northern Territory
Date/Time
CST
Temp
°C
App
Temp
°C
Dew
Point
Rel
Hum
%
Delta-T
°C
Wind Press
QNH
hPa
Press
MSL
hPa
Rain
since 9 am
mm
Dir
 
Spd
km/h
Gust
km/h
Spd
kts
Gust
kts
28/01:30pm 33.8 33.8 16.2 35 11.1 E 11 19 6 10 1013.3 1012.8 0.0
28/01:00pm 33.1 32.8 16.5 37 10.5 NE 13 22 7 12 1013.9 1013.4 0.0
28/12:30pm 31.7 31.6 17.9 43 8.9 E 15 22 8 12 1014.5 1014.0 0.0
28/12:00pm 30.7 31.1 18.1 47 8.1 ESE 13 24 7 13 1014.9 1014.4 0.0
28/11:30am 29.3 31.3 19.9 57 6.2 ESE 9 15 5 8 1015.4 1014.9 0.0
28/11:00am 28.9 31.1 20.4 60 5.6 ESE 9 19 5 10 1015.8 1015.3 0.0
28/10:30am 28.0 30.0 20.0 61 5.2 E 9 19 5 10 1016.1 1015.6 0.0
28/10:00am 26.4 27.6 19.8 67 4.3 ESE 13 19 7 10 1016.2 1015.7 0.0
28/09:30am 25.3 27.2 20.5 75 3.1 ESE 11 17 6 9 1016.0 1015.5 0.0
28/09:00am 25.2 27.3 20.9 77 2.8 ESE 11 17 6 9 1015.9 1015.4 0.0
28/08:30am 24.6 27.6 21.3 82 2.2 ESE 7 13 4 7 1015.6 1015.1 0.0
28/08:00am 23.4 27.9 22.2 93 0.8 NNE 2 7 1 4 1015.2 1014.7 0.0
28/07:30am 20.2 23.9 19.9 98 0.2 CALM 0 0 0 0 1014.9 1014.4 0.0
28/07:00am 19.3 22.3 18.5 95 0.5 CALM 0 0 0 0 1014.4 1013.9 0.0
28/06:30am 19.7 22.9 18.9 95 0.5 CALM 0 0 0 0 1014.0 1013.5 0.0
28/06:00am 19.8 23.0 18.8 94 0.6 CALM 0 0 0 0 1013.8 1013.3 0.0
28/05:30am 20.1 23.3 18.8 92 0.8 CALM 0 0 0 0 1013.6 1013.1 0.0
28/05:00am 21.0 24.4 19.3 90 1.1 CALM 0 0 0 0 1013.7 1013.2 0.0
28/04:30am 22.0 25.2 20.6 92 0.9 SSE 4 6 2 3 1013.7 1013.2 0.0
28/04:00am 22.4 25.5 21.0 92 0.9 SE 6 7 3 4 1013.8 1013.3 0.0
28/03:30am 22.4 25.4 20.9 91 1.0 SE 6 9 3 5 1013.8 1013.3 0.0
28/03:00am 21.8 24.6 20.8 94 0.7 SSE 7 9 4 5 1013.9 1013.4 0.0
28/02:30am 20.5 22.6 19.0 91 0.9 SE 6 7 3 4 1014.1 1013.6 0.0
28/02:00am 20.6 23.3 18.7 89 1.2 SSW 2 6 1 3 1014.3 1013.8 0.0
28/01:30am 21.1 24.4 19.2 89 1.2 CALM 0 6 0 3 1014.7 1014.2 0.0
28/01:00am 21.0 24.0 18.4 85 1.6 CALM 0 4 0 2 1014.8 1014.3 0.0
28/12:30am 21.7 24.7 18.5 82 2.0 CALM 0 0 0 0 1014.7 1014.2 0.0
28/12:00am 22.6 25.8 18.8 79 2.4 CALM 0 6 0 3 1014.8 1014.3 0.0
 
Date/Time
CST
Temp
°C
App
Temp
°C
Dew
Point
Rel
Hum
%
Delta-T
°C
Wind Press
QNH
hPa
Press
MSL
hPa
Rain
since 9 am
mm
Dir
 
Spd
km/h
Gust
km/h
Spd
kts
Gust
kts
27/11:30pm 23.4 25.8 18.7 75 3.0 E 4 9 2 5 1014.8 1014.3 0.0
27/11:00pm 23.6 26.2 18.5 73 3.2 ESE 2 9 1 5 1014.9 1014.4 0.0
27/10:30pm 23.7 25.9 17.4 68 3.9 ESE 2 7 1 4 1014.8 1014.3 0.0
27/10:00pm 24.6 25.8 16.8 62 4.8 ESE 6 7 3 4 1014.6 1014.1 0.0
27/09:30pm 25.5 26.6 17.2 60 5.2 SE 7 11 4 6 1014.6 1014.1 0.0
27/09:00pm 24.9 27.0 16.3 59 5.3 CALM 0 6 0 3 1014.4 1013.9 0.0
27/08:30pm 25.8 26.7 16.1 55 6.0 SSE 6 7 3 4 1014.2 1013.7 0.0
27/08:00pm 26.3 27.2 16.0 53 6.3 SE 6 7 3 4 1013.9 1013.4 0.0
27/07:30pm 27.1 28.6 15.8 50 6.9 SE 2 7 1 4 1013.5 1013.0 0.0
27/07:00pm 27.4 28.3 15.1 47 7.5 SE 4 7 2 4 1013.0 1012.5 0.0
27/06:30pm 29.0 29.2 14.8 42 8.7 SE 7 9 4 5 1012.6 1012.0 0.0
27/06:00pm 30.5 30.3 13.7 35 10.1 ESE 7 13 4 7 1012.3 1011.7 0.0
27/05:30pm 31.8 31.0 14.0 34 10.8 ESE 11 19 6 10 1012.0 1011.4 0.0
27/05:00pm 32.3 30.9 13.5 32 11.4 E 13 24 7 13 1012.0 1011.4 0.0
27/04:30pm 33.4 31.7 13.5 30 12.1 ESE 15 24 8 13 1011.8 1011.2 0.0
27/04:00pm 33.5 31.9 14.0 30 11.9 ESE 15 24 8 13 1011.8 1011.2 0.0
27/03:30pm 33.5 32.1 13.5 29 12.2 ESE 13 26 7 14 1011.8 1011.2 0.0
27/03:00pm 33.5 31.9 14.0 30 12.0 ESE 15 28 8 15 1012.0 1011.4 0.0
27/02:30pm 33.9 32.3 14.9 32 11.8 ESE 17 26 9 14 1012.4 1011.8 0.0
27/02:00pm 33.2 31.9 13.8 31 11.8 ESE 13 26 7 14 1012.7 1012.1 0.0
27/01:30pm 33.3 32.2 14.4 32 11.6 E 13 20 7 11 1013.1 1012.6 0.0
27/01:00pm 32.9 31.1 14.5 33 11.3 SE 17 28 9 15 1013.7 1013.2 0.0
27/12:30pm 33.4 32.3 15.4 34 11.2 E 15 28 8 15 1014.4 1013.9 0.0
27/12:00pm 32.3 30.1 14.9 35 10.8 E 20 32 11 17 1014.8 1014.3 0.0
27/11:30am 32.2 30.1 14.8 35 10.7 ENE 19 30 10 16 1015.3 1014.8 0.0
27/11:00am 31.4 29.2 15.0 37 10.1 E 20 35 11 19 1015.9 1015.4 0.0
27/10:30am 30.2 29.9 17.3 46 8.2 ESE 15 26 8 14 1016.2 1015.7 0.0
27/10:00am 29.1 29.0 17.9 50 7.2 ESE 15 24 8 13 1016.6 1016.0 0.0
27/09:30am 28.0 28.9 19.2 58 5.7 ESE 13 22 7 12 1016.7 1016.1 0.0
27/09:00am 26.5 27.9 18.6 62 5.1 ESE 9 19 5 10 1016.5 1015.9 0.0
27/08:30am 24.5 27.1 21.2 82 2.2 SE 9 17 5 9 1016.2 1015.7 0.0
27/08:00am 23.3 26.6 21.9 92 0.9 S 7 13 4 7 1015.9 1015.4 0.0
27/07:30am 20.0 23.1 19.5 97 0.3 E 2 7 1 4 1015.6 1015.1 0.0
27/07:00am 19.0 21.9 18.2 95 0.5 CALM 0 0 0 0 1015.3 1014.8 0.0
27/06:30am 19.2 22.1 18.2 94 0.6 CALM 0 0 0 0 1015.1 1014.6 0.0
27/06:00am 19.5 22.4 18.2 92 0.8 CALM 0 0 0 0 1015.0 1014.5 0.0
27/05:30am 20.4 23.8 19.4 94 0.6 CALM 0 0 0 0 1014.7 1014.2 0.0
27/05:00am 20.8 23.5 19.5 92 0.8 SSE 4 6 2 3 1014.5 1014.0 0.0
27/04:30am 21.5 24.2 20.3 93 0.8 S 6 7 3 4 1014.6 1014.1 0.0
27/04:00am 21.8 24.6 20.8 94 0.7 S 7 9 4 5 1014.6 1014.1 0.0
27/03:30am 21.1 23.3 19.7 92 0.9 S 7 9 4 5 1014.8 1014.3 0.0
27/03:00am 21.1 23.2 19.0 88 1.3 S 6 7 3 4 1015.2 1014.7 0.0
27/02:30am 21.4 23.4 18.8 85 1.6 SSW 6 7 3 4 1015.7 1015.2 0.0
27/02:00am 21.8 24.2 18.8 83 1.9 SSE 4 7 2 4 1015.8 1015.3 0.0
27/01:30am 22.2 24.2 18.8 81 2.2 SE 6 7 3 4 1016.0 1015.5 0.0
27/01:00am 22.4 24.1 18.0 76 2.8 SE 6 7 3 4 1016.1 1015.6 0.0
27/12:30am 23.0 24.7 18.1 74 3.1 SE 6 9 3 5 1016.4 1015.8 0.0
27/12:00am 22.8 24.2 17.7 73 3.2 SE 7 9 4 5 1016.6 1016.0 0.0
 
Date/Time
CST
Temp
°C
App
Temp
°C
Dew
Point
Rel
Hum
%
Delta-T
°C
Wind Press
QNH
hPa
Press
MSL
hPa
Rain
since 9 am
mm
Dir
 
Spd
km/h
Gust
km/h
Spd
kts
Gust
kts
26/11:30pm 22.9 24.1 16.9 69 3.7 SE 6 7 3 4 1016.8 1016.2 0.0
26/11:00pm 23.6 24.8 16.9 66 4.1 ESE 6 7 3 4 1016.8 1016.2 0.0
26/10:30pm 24.0 25.6 16.8 64 4.4 SE 4 7 2 4 1016.7 1016.1 0.0
26/10:00pm 24.7 26.6 16.7 61 4.9 SE 2 7 1 4 1016.7 1016.1 0.0
26/09:30pm 25.2 26.2 16.3 57 5.5 SSE 6 9 3 5 1016.5 1015.9 0.0
26/09:00pm 26.2 27.2 16.4 54 6.1 SSE 6 11 3 6 1016.2 1015.7 0.0
26/08:30pm 27.0 27.9 16.6 53 6.5 SSE 7 9 4 5 1015.8 1015.3 0.0
26/08:00pm 27.6 28.4 15.9 49 7.2 SE 6 11 3 6 1015.6 1015.1 0.0
26/07:30pm 28.3 29.0 16.2 47 7.5 ESE 7 11 4 6 1015.3 1014.8 0.0
26/07:00pm 28.6 29.4 15.8 45 7.9 ESE 6 11 3 6 1014.8 1014.3 0.0
26/06:30pm 29.7 30.0 15.0 40 9.0 ESE 7 11 4 6 1014.3 1013.8 0.0
26/06:00pm 30.8 30.6 14.8 37 9.8 SE 9 13 5 7 1013.9 1013.4 0.0
26/05:30pm 32.1 31.0 14.3 34 10.9 SE 13 20 7 11 1013.6 1013.1 0.0
26/05:00pm 32.8 31.4 14.4 33 11.3 ESE 15 28 8 15 1013.4 1012.9 0.0
26/04:30pm 33.6 32.6 14.6 31 11.7 SE 13 22 7 12 1013.2 1012.7 0.0
26/04:00pm 33.3 31.6 14.8 32 11.5 ESE 17 26 9 14 1013.3 1012.8 0.0
26/03:30pm 33.5 32.7 15.0 32 11.5 E 13 24 7 13 1013.4 1012.9 0.0
26/03:00pm 32.9 31.7 15.0 34 11.1 ESE 15 26 8 14 1013.7 1013.2 0.0
26/02:30pm 32.7 31.0 14.8 34 11.1 SE 17 26 9 14 1013.9 1013.4 0.0
26/02:00pm 33.7 32.2 15.2 33 11.5 E 17 28 9 15 1014.3 1013.8 0.0
26/01:30pm 34.0 32.5 15.4 32 11.6 ESE 17 28 9 15 1014.7 1014.2 0.0
26/01:00pm 34.1 32.5 16.0 34 11.4 E 19 32 10 17 1015.2 1014.7 0.0
26/12:30pm 33.0 31.0 15.0 33 11.2 ESE 19 32 10 17 1015.8 1015.3 0.0
26/12:00pm 33.0 31.4 15.9 35 10.7 E 19 32 10 17 1016.4 1015.8 0.0
26/11:30am 32.5 30.9 15.9 36 10.4 ESE 19 30 10 16 1016.8 1016.2 0.0
26/11:00am 32.0 31.5 17.8 42 9.1 ESE 17 28 9 15 1017.4 1016.8 0.0
26/10:30am 31.2 32.3 18.9 48 8.0 ESE 11 17 6 9 1017.9 1017.3 0.0
26/10:00am 29.4 31.0 20.0 57 6.2 ESE 11 19 6 10 1018.1 1017.5 0.0
26/09:30am 28.8 30.6 20.3 60 5.6 ESE 11 17 6 9 1018.1 1017.5 0.0
26/09:00am 27.5 29.6 20.1 64 4.8 ESE 9 15 5 8 1018.1 1017.5 0.0
26/08:30am 25.6 27.7 20.2 72 3.5 SSE 9 15 5 8 1018.0 1017.4 0.0
26/08:00am 24.3 27.1 20.8 81 2.3 SE 7 11 4 6 1017.9 1017.3 0.0
26/07:30am 21.8 24.9 21.0 95 0.5 S 6 7 3 4 1017.7 1017.1 0.0
26/07:00am 20.4 22.6 19.2 93 0.8 S 6 7 3 4 1017.6 1017.0 0.0
26/06:30am 20.5 22.6 19.3 93 0.8 S 7 7 4 4 1017.4 1016.8 0.0
26/06:00am 20.8 22.6 15.4 71 3.2 CALM 0 6 0 3 1017.2 1016.6 0.0
26/05:30am 20.9 23.3 19.6 92 0.8 S 6 7 3 4 1017.0 1016.4 0.0
26/05:00am 21.1 23.4 19.4 90 1.1 S 6 7 3 4 1016.8 1016.2 0.0
26/04:30am 21.8 25.0 19.7 88 1.3 SE 2 6 1 3 1016.5 1015.9 0.0
26/04:00am 22.3 24.9 20.0 87 1.5 SSE 6 7 3 4 1016.5 1015.9 0.0
26/03:30am 22.0 25.3 19.9 88 1.3 SSW 2 6 1 3 1016.6 1016.0 0.0
26/03:00am 21.8 24.5 19.5 87 1.5 SSE 4 7 2 4 1016.7 1016.1 0.0
26/02:30am 21.9 24.2 19.5 86 1.5 S 6 7 3 4 1016.9 1016.3 0.0
26/02:00am 22.5 24.7 19.3 82 2.0 S 6 7 3 4 1017.0 1016.4 0.0
26/01:30am 23.1 25.5 19.7 81 2.2 SSE 6 9 3 5 1017.4 1016.8 0.0
26/01:00am 23.6 25.9 19.9 80 2.4 SSE 7 13 4 7 1017.7 1017.1 0.0
26/12:30am 23.9 26.4 19.8 78 2.6 SE 6 11 3 6 1018.0 1017.4 0.0
26/12:00am 24.2 26.6 19.7 76 2.9 SSE 6 9 3 5 1018.3 1017.7 0.0
 
Date/Time
CST
Temp
°C
App
Temp
°C
Dew
Point
Rel
Hum
%
Delta-T
°C
Wind Press
QNH
hPa
Press
MSL
hPa
Rain
since 9 am
mm
Dir
 
Spd
km/h
Gust
km/h
Spd
kts
Gust
kts
25/11:30pm 24.8 27.6 19.6 73 3.4 SSE 4 9 2 5 1018.3 1017.7 0.0
25/11:00pm 25.4 27.7 19.8 71 3.6 SE 7 13 4 7 1018.4 1017.8 0.0
25/10:30pm 25.7 27.9 19.6 69 3.9 SE 7 13 4 7 1018.5 1017.9 0.0
25/10:00pm 25.9 28.2 19.8 69 4.0 ESE 7 13 4 7 1018.4 1017.8 0.0
25/09:30pm 26.3 28.2 19.7 67 4.3 ESE 9 15 5 8 1018.1 1017.5 0.0
25/09:00pm 26.9 28.7 19.5 64 4.8 ESE 9 15 5 8 1017.8 1017.2 0.0
25/08:30pm 27.5 29.2 19.3 61 5.3 ESE 9 15 5 8 1017.4 1016.8 0.0
25/08:00pm 28.3 29.6 19.2 57 5.9 ESE 11 19 6 10 1016.9 1016.3 0.0
25/07:30pm 28.9 30.0 18.9 54 6.5 ESE 11 19 6 10 1016.2 1015.7 0.0
25/07:00pm 29.2 30.9 18.6 52 6.8 SE 7 13 4 7 1015.8 1015.3 0.0
25/06:30pm 29.5 31.2 18.6 52 7.0 SE 7 13 4 7 1015.5 1015.0 0.0
25/06:00pm 29.9 31.3 18.7 51 7.3 ESE 9 11 5 6 1015.2 1014.7 0.0
25/05:30pm 30.3 32.1 18.7 50 7.5 ESE 7 11 4 6 1014.9 1014.4 0.0
25/05:00pm 30.7 31.8 18.1 47 8.1 E 9 15 5 8 1014.5 1014.0 0.0
25/04:30pm 31.1 32.2 18.1 46 8.4 ENE 9 15 5 8 1014.5 1014.0 0.0
25/04:00pm 31.7 32.9 18.3 45 8.7 E 9 19 5 10 1014.3 1013.8 0.0
25/03:30pm 31.5 31.8 17.8 44 8.8 E 13 20 7 11 1014.4 1013.9 0.0
25/03:00pm 32.3 32.8 17.4 41 9.5 ESE 11 20 6 11 1014.5 1014.0 0.0
25/02:30pm 33.4 33.3 18.7 41 9.6 SE 17 26 9 14 1014.7 1014.2 0.0
25/02:00pm 32.7 32.9 17.7 40 9.7 ESE 13 22 7 12 1015.0 1014.5 0.0

Other Formats:

Comma delimited format used in spreadsheet applications
http://www.bom.gov.au/fwo/IDD60801/IDD60801.94143.axf

JavaScript Object Notation format (JSON) in row-major order
http://www.bom.gov.au/fwo/IDD60801/IDD60801.94143.json